Time,TemperatureF,DewpointF,PressureIn,WindDirection,WindDirectionDegrees,WindSpeedMPH,WindSpeedGustMPH,Humidity,HourlyPrecipIn,Conditions,Clouds,dailyrainin,SoftwareType,DateUTC
2013-08-17 00:00:00,92.3,57.3,29.74,WSW,247,0.0,11.0,31,0.00,,,0.00,WeatherDisplay:10.37,2013-08-17 07:00:00,
2013-08-17 00:10:00,91.8,57.8,29.74,WSW,248,0.0,0.0,32,0.00,,,0.00,WeatherDisplay:10.37,2013-08-17 07:10:00,
2013-08-17 00:20:00,92.1,57.1,29.74,WSW,252,0.0,1.0,31,0.00,,,0.00,WeatherDisplay:10.37,2013-08-17 07:20:00,
2013-08-17 00:30:00,91.8,57.7,29.73,WNW,294,0.0,1.0,32,0.00,,,0.00,WeatherDisplay:10.37,2013-08-17 07:30:00,
2013-08-17 00:40:00,91.6,56.7,29.73,NNW,331,0.0,1.0,31,0.00,,,0.00,WeatherDisplay:10.37,2013-08-17 07:40:00,
2013-08-17 00:50:00,91.5,57.5,29.73,NW,322,0.0,0.0,32,0.00,,,0.00,WeatherDisplay:10.37,2013-08-17 07:50:00,
2013-08-17 01:00:00,91.0,57.1,29.72,NW,322,0.0,0.0,32,0.00,,,0.00,WeatherDisplay:10.37,2013-08-17 08:00:00,
2013-08-17 01:10:00,90.7,56.8,29.72,NW,322,0.0,0.0,32,0.00,,,0.00,WeatherDisplay:10.37,2013-08-17 08:10:00,
2013-08-17 01:20:00,90.5,56.6,29.73,NW,322,0.0,0.0,32,0.00,,,0.00,WeatherDisplay:10.37,2013-08-17 08:20:00,
2013-08-17 01:30:00,90.2,57.2,29.73,NW,322,0.0,0.0,33,0.00,,,0.00,WeatherDisplay:10.37,2013-08-17 08:30:00,
2013-08-17 01:40:00,90.0,57.0,29.74,NNW,333,0.0,1.0,33,0.00,,,0.00,WeatherDisplay:10.37,2013-08-17 08:40:00,
2013-08-17 01:50:00,90.3,58.9,29.73,ESE,109,0.0,1.0,35,0.00,,,0.00,WeatherDisplay:10.37,2013-08-17 08:50:00,
2013-08-17 02:00:00,90.2,59.6,29.73,NNW,339,0.0,1.0,36,0.00,,,0.00,WeatherDisplay:10.37,2013-08-17 09:00:00,
2013-08-17 02:10:00,89.9,59.4,29.73,NNW,339,0.0,1.0,36,0.00,,,0.00,WeatherDisplay:10.37,2013-08-17 09:10:00,
2013-08-17 02:20:00,90.2,59.6,29.72,NNW,329,0.0,1.0,36,0.00,,,0.00,WeatherDisplay:10.37,2013-08-17 09:20:00,
2013-08-17 02:30:00,90.1,61.1,29.72,NW,316,0.0,0.0,38,0.00,,,0.00,WeatherDisplay:10.37,2013-08-17 09:30:00,
2013-08-17 02:40:00,89.9,60.1,29.73,North,353,0.0,1.0,37,0.00,,,0.00,WeatherDisplay:10.37,2013-08-17 09:40:00,
2013-08-17 02:50:00,89.3,59.6,29.73,NE,54,0.0,1.0,37,0.00,,,0.00,WeatherDisplay:10.37,2013-08-17 09:50:00,
2013-08-17 03:00:00,89.3,60.4,29.73,NE,54,0.0,1.0,38,0.00,,,0.00,WeatherDisplay:10.37,2013-08-17 10:00:00,
2013-08-17 03:10:00,89.2,61.0,29.73,NE,54,0.0,1.0,39,0.00,,,0.00,WeatherDisplay:10.37,2013-08-17 10:10:00,
2013-08-17 03:20:00,89.4,60.4,29.74,NW,320,0.0,1.0,38,0.00,,,0.00,WeatherDisplay:10.37,2013-08-17 10:20:00,
2013-08-17 03:30:00,88.9,60.0,29.73,WNW,284,0.0,1.0,38,0.00,,,0.00,WeatherDisplay:10.37,2013-08-17 10:30:00,
2013-08-17 03:40:00,88.9,59.3,29.73,WNW,284,0.0,1.0,37,0.00,,,0.00,WeatherDisplay:10.37,2013-08-17 10:40:00,
2013-08-17 03:50:00,89.2,60.3,29.73,SSE,152,0.0,3.0,38,0.00,,,0.00,WeatherDisplay:10.37,2013-08-17 10:50:00,
2013-08-17 04:00:00,89.2,60.3,29.73,SSW,197,0.0,1.0,38,0.00,,,0.00,WeatherDisplay:10.37,2013-08-17 11:00:00,
2013-08-17 04:10:00,88.8,59.9,29.74,SSW,208,0.0,0.0,38,0.00,,,0.00,WeatherDisplay:10.37,2013-08-17 11:10:00,
2013-08-17 04:20:00,88.4,60.3,29.74,SSW,210,0.0,0.0,39,0.00,,,0.00,WeatherDisplay:10.37,2013-08-17 11:20:00,
2013-08-17 04:30:00,87.9,59.9,29.74,SSW,210,0.0,0.0,39,0.00,,,0.00,WeatherDisplay:10.37,2013-08-17 11:30:00,
2013-08-17 04:40:00,88.4,60.3,29.74,SSW,210,0.0,0.0,39,0.00,,,0.00,WeatherDisplay:10.37,2013-08-17 11:40:00,
2013-08-17 04:50:00,88.1,59.3,29.74,SSW,210,0.0,0.0,38,0.00,,,0.00,WeatherDisplay:10.37,2013-08-17 11:50:00,
2013-08-17 05:00:00,87.7,58.9,29.74,SSW,210,0.0,0.0,38,0.00,,,0.00,WeatherDisplay:10.37,2013-08-17 12:00:00,
2013-08-17 05:10:00,88.0,59.2,29.74,SSW,210,0.0,0.0,38,0.00,,,0.00,WeatherDisplay:10.37,2013-08-17 12:10:00,
2013-08-17 05:20:00,88.1,60.7,29.75,South,170,0.0,1.0,40,0.00,,,0.00,WeatherDisplay:10.37,2013-08-17 12:20:00,
2013-08-17 05:30:00,87.8,59.8,29.76,SE,124,0.0,0.0,39,0.00,,,0.00,WeatherDisplay:10.37,2013-08-17 12:30:00,
2013-08-17 05:40:00,87.2,59.9,29.75,SE,124,0.0,0.0,40,0.00,,,0.00,WeatherDisplay:10.37,2013-08-17 12:40:00,
2013-08-17 05:50:00,87.0,59.8,29.76,SE,124,0.0,0.0,40,0.00,,,0.00,WeatherDisplay:10.37,2013-08-17 12:50:00,
2013-08-17 06:00:00,86.8,59.6,29.76,ESE,118,0.0,0.0,40,0.00,,,0.00,WeatherDisplay:10.37,2013-08-17 13:00:00,
2013-08-17 06:10:00,86.4,59.9,29.76,ESE,118,0.0,0.0,41,0.00,,,0.00,WeatherDisplay:10.37,2013-08-17 13:10:00,
2013-08-17 06:20:00,86.1,60.3,29.76,ESE,118,0.0,0.0,42,0.00,,,0.00,WeatherDisplay:10.37,2013-08-17 13:20:00,
2013-08-17 06:30:00,86.1,60.3,29.76,ESE,118,0.0,0.0,42,0.00,,,0.00,WeatherDisplay:10.37,2013-08-17 13:30:00,
2013-08-17 06:40:00,86.1,61.0,29.77,ESE,118,0.0,0.0,43,0.00,,,0.00,WeatherDisplay:10.37,2013-08-17 13:40:00,
2013-08-17 06:50:00,86.6,61.5,29.77,ESE,121,0.0,1.0,43,0.00,,,0.00,WeatherDisplay:10.37,2013-08-17 13:50:00,
2013-08-17 07:00:00,87.4,61.4,29.77,SE,125,0.0,1.0,42,0.00,,,0.00,WeatherDisplay:10.37,2013-08-17 14:00:00,
2013-08-17 07:10:00,87.5,61.6,29.78,SE,126,0.0,0.0,42,0.00,,,0.00,WeatherDisplay:10.37,2013-08-17 14:10:00,
2013-08-17 07:20:00,87.5,62.2,29.78,SE,126,0.0,0.0,43,0.00,,,0.00,WeatherDisplay:10.37,2013-08-17 14:20:00,
2013-08-17 07:30:00,87.6,61.0,29.78,SE,126,0.0,0.0,41,0.00,,,0.00,WeatherDisplay:10.37,2013-08-17 14:30:00,
2013-08-17 07:40:00,88.0,62.0,29.79,SE,126,0.0,0.0,42,0.00,,,0.00,WeatherDisplay:10.37,2013-08-17 14:40:00,
2013-08-17 07:50:00,88.6,61.9,29.79,SE,126,0.0,0.0,41,0.00,,,0.00,WeatherDisplay:10.37,2013-08-17 14:50:00,
2013-08-17 08:00:00,89.4,64.0,29.79,ESE,112,0.0,0.0,43,0.00,,,0.00,WeatherDisplay:10.37,2013-08-17 15:00:00,
2013-08-17 08:10:00,90.5,62.9,29.80,NE,43,0.0,0.0,40,0.00,,,0.00,WeatherDisplay:10.37,2013-08-17 15:10:00,
2013-08-17 08:20:00,91.8,62.6,29.79,ESE,102,0.0,1.0,38,0.00,,,0.00,WeatherDisplay:10.37,2013-08-17 15:20:00,
2013-08-17 08:30:00,92.6,62.5,29.79,ESE,123,0.0,1.0,37,0.00,,,0.00,WeatherDisplay:10.37,2013-08-17 15:30:00,
2013-08-17 08:40:00,93.4,63.3,29.79,East,80,0.0,1.0,37,0.00,,,0.00,WeatherDisplay:10.37,2013-08-17 15:40:00,
2013-08-17 08:50:00,94.7,63.6,29.79,East,90,0.0,1.0,36,0.00,,,0.00,WeatherDisplay:10.37,2013-08-17 15:50:00,
2013-08-17 09:00:00,94.6,61.1,29.78,ESE,108,2.0,3.0,33,0.00,,,0.00,WeatherDisplay:10.37,2013-08-17 16:00:00,
2013-08-17 09:10:00,95.0,62.2,29.79,SE,132,1.0,4.0,34,0.00,,,0.00,WeatherDisplay:10.37,2013-08-17 16:10:00,
2013-08-17 09:20:00,95.6,61.9,29.79,SE,126,0.0,4.0,33,0.00,,,0.00,WeatherDisplay:10.37,2013-08-17 16:20:00,
2013-08-17 09:30:00,95.7,61.1,29.79,SE,127,1.0,4.0,32,0.00,,,0.00,WeatherDisplay:10.37,2013-08-17 16:30:00,
2013-08-17 09:40:00,96.4,62.6,29.79,ESE,122,0.0,4.0,33,0.00,,,0.00,WeatherDisplay:10.37,2013-08-17 16:40:00,
2013-08-17 09:50:00,97.2,60.6,29.78,SE,131,1.0,5.0,30,0.00,,,0.00,WeatherDisplay:10.37,2013-08-17 16:50:00,
2013-08-17 10:00:00,98.1,61.4,29.78,NE,36,0.0,5.0,30,0.00,,,0.00,WeatherDisplay:10.37,2013-08-17 17:00:00,
2013-08-17 10:10:00,100.1,62.1,29.78,NNE,25,0.0,5.0,29,0.00,,,0.00,WeatherDisplay:10.37,2013-08-17 17:10:00,
2013-08-17 10:20:00,101.2,62.1,29.78,NNE,22,0.0,5.0,28,0.00,,,0.00,WeatherDisplay:10.37,2013-08-17 17:20:00,
2013-08-17 10:30:00,101.8,60.5,29.78,ESE,110,1.0,5.0,26,0.00,,,0.00,WeatherDisplay:10.37,2013-08-17 17:30:00,
2013-08-17 10:40:00,101.6,60.3,29.77,East,87,1.0,5.0,26,0.00,,,0.00,WeatherDisplay:10.37,2013-08-17 17:40:00,
2013-08-17 10:50:00,102.8,59.1,29.76,South,190,0.0,5.0,24,0.00,,,0.00,WeatherDisplay:10.37,2013-08-17 17:50:00,
2013-08-17 11:00:00,104.1,57.7,29.76,SE,139,1.0,5.0,22,0.00,,,0.00,WeatherDisplay:10.37,2013-08-17 18:00:00,
2013-08-17 11:10:00,104.5,60.5,29.75,NW,307,1.0,5.0,24,0.00,,,0.00,WeatherDisplay:10.37,2013-08-17 18:10:00,
2013-08-17 11:20:00,104.7,59.5,29.75,SSW,207,0.0,5.0,23,0.00,,,0.00,WeatherDisplay:10.37,2013-08-17 18:20:00,
2013-08-17 11:30:00,106.4,58.3,29.74,East,96,1.0,2.0,21,0.00,,,0.00,WeatherDisplay:10.37,2013-08-17 18:30:00,
2013-08-17 11:40:00,106.8,58.6,29.74,NNE,23,0.0,5.0,21,0.00,,,0.00,WeatherDisplay:10.37,2013-08-17 18:40:00,
2013-08-17 11:50:00,106.9,58.8,29.74,East,97,0.0,5.0,21,0.00,,,0.00,WeatherDisplay:10.37,2013-08-17 18:50:00,
2013-08-17 12:00:00,107.8,58.1,29.73,East,91,0.0,5.0,20,0.00,,,0.00,WeatherDisplay:10.37,2013-08-17 19:00:00,
2013-08-17 12:10:00,108.0,58.3,29.72,ESE,110,1.0,5.0,20,0.00,,,0.00,WeatherDisplay:10.37,2013-08-17 19:10:00,
2013-08-17 12:20:00,107.8,60.8,29.72,East,82,0.0,5.0,22,0.00,,,0.00,WeatherDisplay:10.37,2013-08-17 19:20:00,
2013-08-17 12:30:00,108.7,57.4,29.70,NNE,21,0.0,5.0,19,0.00,,,0.00,WeatherDisplay:10.37,2013-08-17 19:30:00,
2013-08-17 12:40:00,107.9,56.8,29.70,NNW,328,0.0,5.0,19,0.00,,,0.00,WeatherDisplay:10.37,2013-08-17 19:40:00,
2013-08-17 12:50:00,107.5,57.8,29.70,ESE,112,2.0,6.0,20,0.00,,,0.00,WeatherDisplay:10.37,2013-08-17 19:50:00,
2013-08-17 13:00:00,107.8,58.1,29.69,ESE,114,0.0,8.0,20,0.00,,,0.00,WeatherDisplay:10.37,2013-08-17 20:00:00,
2013-08-17 13:10:00,109.2,56.3,29.68,NNW,331,1.0,8.0,18,0.00,,,0.00,WeatherDisplay:10.37,2013-08-17 20:10:00,
2013-08-17 13:20:00,108.9,56.1,29.67,SE,142,1.0,8.0,18,0.00,,,0.00,WeatherDisplay:10.37,2013-08-17 20:20:00,
2013-08-17 13:30:00,108.2,55.5,29.67,ESE,113,0.0,8.0,18,0.00,,,0.00,WeatherDisplay:10.37,2013-08-17 20:30:00,
2013-08-17 13:40:00,108.4,55.6,29.67,SSE,152,0.0,8.0,18,0.00,,,0.00,WeatherDisplay:10.37,2013-08-17 20:40:00,
2013-08-17 13:50:00,109.5,56.6,29.66,SSE,148,0.0,8.0,18,0.00,,,0.00,WeatherDisplay:10.37,2013-08-17 20:50:00,
2013-08-17 14:00:00,110.9,57.7,29.66,SSE,150,0.0,8.0,18,0.00,,,0.00,WeatherDisplay:10.37,2013-08-17 21:00:00,
2013-08-17 14:10:00,109.9,53.7,29.65,WSW,252,2.0,8.0,16,0.00,,,0.00,WeatherDisplay:10.37,2013-08-17 21:10:00,
2013-08-17 14:20:00,109.6,55.1,29.65,SSW,209,0.0,8.0,17,0.00,,,0.00,WeatherDisplay:10.37,2013-08-17 21:20:00,
2013-08-17 14:30:00,109.5,55.0,29.65,ESE,104,1.0,9.0,17,0.00,,,0.00,WeatherDisplay:10.37,2013-08-17 21:30:00,
2013-08-17 14:40:00,110.8,54.3,29.64,SSW,203,0.0,3.0,16,0.00,,,0.00,WeatherDisplay:10.37,2013-08-17 21:40:00,
2013-08-17 14:50:00,110.8,52.5,29.63,SSE,152,0.0,4.0,15,0.00,,,0.00,WeatherDisplay:10.37,2013-08-17 21:50:00,
2013-08-17 15:00:00,110.0,53.7,29.63,WSW,245,1.0,5.0,16,0.00,,,0.00,WeatherDisplay:10.37,2013-08-17 22:00:00,
2013-08-17 15:10:00,110.2,53.9,29.62,ESE,120,1.0,4.0,16,0.00,,,0.00,WeatherDisplay:10.37,2013-08-17 22:10:00,
2013-08-17 15:20:00,110.5,54.1,29.62,ESE,122,1.0,6.0,16,0.00,,,0.00,WeatherDisplay:10.37,2013-08-17 22:20:00,
2013-08-17 15:30:00,110.7,55.9,29.61,SE,130,2.0,7.0,17,0.00,,,0.00,WeatherDisplay:10.37,2013-08-17 22:30:00,
2013-08-17 15:40:00,111.0,52.8,29.61,SE,138,0.0,4.0,15,0.00,,,0.00,WeatherDisplay:10.37,2013-08-17 22:40:00,
2013-08-17 15:50:00,111.1,52.8,29.60,ESE,119,1.0,5.0,15,0.00,,,0.00,WeatherDisplay:10.37,2013-08-17 22:50:00,
2013-08-17 16:00:00,111.0,52.7,29.60,SE,128,2.0,7.0,15,0.00,,,0.00,WeatherDisplay:10.37,2013-08-17 23:00:00,
2013-08-17 16:10:00,110.7,54.3,29.60,SE,131,1.0,6.0,16,0.00,,,0.00,WeatherDisplay:10.37,2013-08-17 23:10:00,
2013-08-17 16:20:00,110.9,52.7,29.60,SE,145,1.0,6.0,15,0.00,,,0.00,WeatherDisplay:10.37,2013-08-17 23:20:00,
2013-08-17 16:30:00,110.8,52.6,29.59,West,259,2.0,12.0,15,0.00,,,0.00,WeatherDisplay:10.37,2013-08-17 23:30:00,
2013-08-17 16:40:00,110.5,52.3,29.59,SW,219,1.0,6.0,15,0.00,,,0.00,WeatherDisplay:10.37,2013-08-17 23:40:00,
2013-08-17 16:50:00,110.7,50.7,29.59,South,172,2.0,7.0,14,0.00,,,0.00,WeatherDisplay:10.37,2013-08-17 23:50:00,
2013-08-17 17:00:00,110.5,50.5,29.59,SSE,163,0.0,4.0,14,0.00,,,0.00,WeatherDisplay:10.37,2013-08-18 00:00:00,
2013-08-17 17:10:00,110.4,48.4,29.58,SSE,157,3.0,12.0,13,0.00,,,0.00,WeatherDisplay:10.37,2013-08-18 00:10:00,
2013-08-17 17:20:00,111.3,49.1,29.58,SE,129,1.0,2.0,13,0.00,,,0.00,WeatherDisplay:10.37,2013-08-18 00:20:00,
2013-08-17 17:30:00,112.0,47.5,29.58,SSE,164,0.0,3.0,12,0.00,,,0.00,WeatherDisplay:10.37,2013-08-18 00:30:00,
2013-08-17 17:40:00,112.5,47.9,29.58,SE,137,1.0,4.0,12,0.00,,,0.00,WeatherDisplay:10.37,2013-08-18 00:40:00,
2013-08-17 17:50:00,110.9,46.6,29.58,SSW,199,1.0,5.0,12,0.00,,,0.00,WeatherDisplay:10.37,2013-08-18 00:50:00,
2013-08-17 18:00:00,109.9,45.9,29.59,ESE,117,2.0,5.0,12,0.00,,,0.00,WeatherDisplay:10.37,2013-08-18 01:00:00,
2013-08-17 18:10:00,109.6,47.8,29.58,SE,140,0.0,4.0,13,0.00,CLR,CLR,0.00,WeatherDisplay:10.37,2013-08-18 01:10:00,
2013-08-17 18:20:00,109.4,47.6,29.59,SE,146,0.0,2.0,13,0.00,CLR,CLR,0.00,WeatherDisplay:10.37,2013-08-18 01:20:00,
2013-08-17 18:30:00,110.1,48.2,29.59,South,170,0.0,0.0,13,0.00,CLR,CLR,0.00,WeatherDisplay:10.37,2013-08-18 01:30:00,
2013-08-17 18:40:00,108.9,49.2,29.59,SE,131,0.0,1.0,14,0.00,CLR,CLR,0.00,WeatherDisplay:10.37,2013-08-18 01:40:00,
2013-08-17 18:50:00,107.7,46.4,29.59,SE,127,0.0,1.0,13,0.00,CLR,CLR,0.00,WeatherDisplay:10.37,2013-08-18 01:50:00,
2013-08-17 19:00:00,106.4,49.1,29.60,SE,131,0.0,0.0,15,0.00,CLR,CLR,0.00,WeatherDisplay:10.37,2013-08-18 02:00:00,
2013-08-17 19:10:00,104.8,47.8,29.60,East,86,0.0,1.0,15,0.00,,,0.00,WeatherDisplay:10.37,2013-08-18 02:10:00,
2013-08-17 19:20:00,103.6,53.2,29.61,NNE,31,5.0,9.0,19,0.00,,,0.00,WeatherDisplay:10.37,2013-08-18 02:20:00,
2013-08-17 19:30:00,101.0,53.9,29.61,East,89,3.0,9.0,21,0.00,,,0.00,WeatherDisplay:10.37,2013-08-18 02:30:00,
2013-08-17 19:40:00,99.8,54.2,29.63,ENE,67,2.0,6.0,22,0.00,,,0.00,WeatherDisplay:10.37,2013-08-18 02:40:00,
2013-08-17 19:50:00,98.9,54.6,29.63,North,360,3.0,7.0,23,0.00,,,0.00,WeatherDisplay:10.37,2013-08-18 02:50:00,
2013-08-17 20:00:00,98.1,55.1,29.64,NW,322,3.0,12.0,24,0.00,,,0.00,WeatherDisplay:10.37,2013-08-18 03:00:00,
2013-08-17 20:10:00,97.5,55.8,29.64,NE,44,1.0,7.0,25,0.00,,,0.00,WeatherDisplay:10.37,2013-08-18 03:10:00,
2013-08-17 20:20:00,96.9,56.4,29.65,North,5,1.0,8.0,26,0.00,,,0.00,WeatherDisplay:10.37,2013-08-18 03:20:00,
2013-08-17 20:30:00,96.6,55.0,29.66,NW,316,2.0,7.0,25,0.00,,,0.00,WeatherDisplay:10.37,2013-08-18 03:30:00,
2013-08-17 20:40:00,96.5,56.0,29.66,NW,324,1.0,10.0,26,0.00,,,0.00,WeatherDisplay:10.37,2013-08-18 03:40:00,
2013-08-17 20:50:00,96.6,56.1,29.68,SW,234,1.0,7.0,26,0.00,,,0.00,WeatherDisplay:10.37,2013-08-18 03:50:00,
2013-08-17 21:00:00,96.8,55.2,29.72,ENE,58,2.0,8.0,25,0.00,,,0.00,WeatherDisplay:10.37,2013-08-18 04:00:00,
2013-08-17 21:10:00,96.9,55.3,29.74,East,90,1.0,5.0,25,0.00,,,0.00,WeatherDisplay:10.37,2013-08-18 04:10:00,
2013-08-17 21:20:00,95.2,62.4,29.75,East,83,0.0,5.0,34,0.00,,,0.00,WeatherDisplay:10.37,2013-08-18 04:20:00,
2013-08-17 21:30:00,91.0,61.9,29.75,NNW,332,0.0,4.0,38,0.00,,,0.00,WeatherDisplay:10.37,2013-08-18 04:30:00,
2013-08-17 21:40:00,90.6,61.5,29.75,NNW,330,1.0,5.0,38,0.00,,,0.00,WeatherDisplay:10.37,2013-08-18 04:40:00,
2013-08-17 21:50:00,89.9,62.3,29.76,NNW,341,2.0,7.0,40,0.00,,,0.00,WeatherDisplay:10.37,2013-08-18 04:50:00,
2013-08-17 22:00:00,89.4,61.9,29.78,NNW,331,1.0,9.0,40,0.00,,,0.00,WeatherDisplay:10.37,2013-08-18 05:00:00,
2013-08-17 22:10:00,89.6,62.1,29.78,ENE,63,1.0,3.0,40,0.00,,,0.00,WeatherDisplay:10.37,2013-08-18 05:10:00,
2013-08-17 22:20:00,89.8,62.3,29.79,North,9,0.0,2.0,40,0.00,,,0.00,WeatherDisplay:10.37,2013-08-18 05:20:00,
2013-08-17 22:30:00,89.5,62.7,29.79,NNW,348,0.0,1.0,41,0.00,,,0.00,WeatherDisplay:10.37,2013-08-18 05:30:00,
2013-08-17 22:40:00,89.2,63.1,29.79,East,85,1.0,4.0,42,0.00,,,0.00,WeatherDisplay:10.37,2013-08-18 05:40:00,
2013-08-17 22:50:00,88.9,62.8,29.79,NNE,16,1.0,7.0,42,0.00,,,0.00,WeatherDisplay:10.37,2013-08-18 05:50:00,
2013-08-17 23:00:00,89.0,61.5,29.81,NNE,20,0.0,4.0,40,0.00,,,0.00,WeatherDisplay:10.37,2013-08-18 06:00:00,
2013-08-17 23:10:00,89.0,62.2,29.80,NNE,24,0.0,3.0,41,0.00,,,0.00,WeatherDisplay:10.37,2013-08-18 06:10:00,
2013-08-17 23:20:00,88.7,62.0,29.80,NNW,347,1.0,5.0,41,0.00,,,0.00,WeatherDisplay:10.37,2013-08-18 06:20:00,
2013-08-17 23:30:00,88.8,61.4,29.80,North,3,0.0,4.0,40,0.00,,,0.00,WeatherDisplay:10.37,2013-08-18 06:30:00,
2013-08-17 23:40:00,88.7,60.6,29.81,NNW,331,0.0,6.0,39,0.00,,,0.00,WeatherDisplay:10.37,2013-08-18 06:40:00,
2013-08-17 23:50:00,88.6,60.5,29.80,NNW,331,0.0,3.0,39,0.00,,,0.00,WeatherDisplay:10.37,2013-08-18 06:50:00,